Time;durP1;ratioP1;P1;durP2;ratioP2;P2;SDS_P1;SDS_P2;PMS_P1;PMS_P2;Temp;Humidity;BMP_temperature;BMP_pressure;BME280_temperature;BME280_humidity;BME280_pressure;Samples;Min_cycle;Max_cycle;Signal;HPM_P1;HPM_P2
2022/01/07 00:02:23;;;;;;;10.13;4.70;;;;;;;;;;4993256;28;20060;-60
2022/01/07 00:08:26;;;;;;;28.67;5.63;;;;;;;;;;5029774;28;20337;-61
2022/01/07 00:10:53;;;;;;;13.35;4.60;;;;;;;;;;5026266;28;20021;-61
2022/01/07 00:13:23;;;;;;;18.40;4.35;;;;;;;;;;5026635;28;20032;-61
2022/01/07 00:15:54;;;;;;;12.90;4.30;;;;;;;;;;5025395;28;21120;-61
2022/01/07 00:18:25;;;;;;;14.20;5.65;;;;;;;;;;5030268;28;20948;-60
2022/01/07 00:20:56;;;;;;;13.80;4.85;;;;;;;;;;5026786;28;20032;-61
2022/01/07 00:23:24;;;;;;;12.73;4.70;;;;;;;;;;4989419;28;20048;-64
2022/01/07 00:25:50;;;;;;;14.40;4.68;;;;;;;;;;4993395;28;20049;-60
2022/01/07 00:28:18;;;;;;;12.13;4.47;;;;;;;;;;5007828;28;20032;-60
2022/01/07 00:30:46;;;;;;;19.27;5.55;;;;;;;;;;4988694;28;20041;-60
2022/01/07 00:36:50;;;;;;;19.65;4.60;;;;;;;;;;5008275;28;20079;-60
2022/01/07 00:39:20;;;;;;;11.98;5.13;;;;;;;;;;4990406;28;20164;-60
2022/01/07 00:41:45;;;;;;;19.98;5.90;;;;;;;;;;5008242;28;20162;-60
2022/01/07 00:44:11;;;;;;;17.45;6.00;;;;;;;;;;4992257;28;20041;-59
2022/01/07 00:46:36;;;;;;;20.27;6.53;;;;;;;;;;4987454;28;20037;-59
2022/01/07 00:49:04;;;;;;;15.10;5.20;;;;;;;;;;4986859;28;20171;-59
2022/01/07 00:51:32;;;;;;;30.65;6.43;;;;;;;;;;4987588;28;20630;-60
2022/01/07 00:54:00;;;;;;;15.20;5.22;;;;;;;;;;4988897;28;20120;-59
2022/01/07 00:56:28;;;;;;;17.13;6.75;;;;;;;;;;4987717;28;20036;-60
2022/01/07 00:58:56;;;;;;;12.13;5.32;;;;;;;;;;4989028;28;20045;-59
2022/01/07 01:01:21;;;;;;;11.18;5.22;;;;;;;;;;5006648;28;20524;-60
2022/01/07 01:03:46;;;;;;;15.45;6.22;;;;;;;;;;5007610;28;20037;-60
2022/01/07 01:06:16;;;;;;;21.27;5.40;;;;;;;;;;5006872;28;20029;-60
2022/01/07 01:08:46;;;;;;;14.98;5.10;;;;;;;;;;5009908;28;20029;-60
2022/01/07 01:11:14;;;;;;;13.35;4.90;;;;;;;;;;5007241;28;20030;-60
2022/01/07 01:13:39;;;;;;;16.15;6.10;;;;;;;;;;4974272;28;20029;-59
2022/01/07 01:16:05;;;;;;;16.35;4.60;;;;;;;;;;5008490;28;20176;-59
2022/01/07 01:18:31;;;;;;;7.82;4.50;;;;;;;;;;5011140;28;20088;-60
2022/01/07 01:20:59;;;;;;;15.73;6.03;;;;;;;;;;5010210;28;20626;-60
2022/01/07 01:23:27;;;;;;;12.85;4.70;;;;;;;;;;5007344;28;20029;-59
2022/01/07 01:25:55;;;;;;;17.90;6.00;;;;;;;;;;5010805;28;20079;-60
2022/01/07 01:28:22;;;;;;;14.50;5.72;;;;;;;;;;5014875;28;20028;-60
2022/01/07 01:30:53;;;;;;;13.20;4.78;;;;;;;;;;5022586;28;20048;-59
2022/01/07 01:33:18;;;;;;;18.70;5.45;;;;;;;;;;5000345;28;20110;-59
2022/01/07 01:35:46;;;;;;;16.13;5.70;;;;;;;;;;5038797;28;20040;-60
2022/01/07 01:38:14;;;;;;;19.67;6.60;;;;;;;;;;5033399;28;20091;-59
2022/01/07 01:40:46;;;;;;;21.38;6.05;;;;;;;;;;5034362;28;20741;-60
2022/01/07 01:43:12;;;;;;;11.30;5.65;;;;;;;;;;5031726;28;21948;-61
2022/01/07 01:45:37;;;;;;;19.65;6.75;;;;;;;;;;5017155;28;20037;-59
2022/01/07 01:48:08;;;;;;;18.65;5.47;;;;;;;;;;5032073;28;20083;-59
2022/01/07 01:50:36;;;;;;;24.85;6.88;;;;;;;;;;5032772;28;20045;-59
2022/01/07 01:53:09;;;;;;;17.73;5.82;;;;;;;;;;5033458;28;20037;-59
2022/01/07 01:55:34;;;;;;;10.45;5.25;;;;;;;;;;5032219;28;20112;-59
2022/01/07 01:58:02;;;;;;;13.05;5.97;;;;;;;;;;5031200;28;20037;-59
2022/01/07 02:00:28;;;;;;;13.27;5.53;;;;;;;;;;5033229;28;20036;-59
2022/01/07 02:02:53;;;;;;;25.65;6.57;;;;;;;;;;5031219;28;20033;-59
2022/01/07 02:05:22;;;;;;;12.65;5.18;;;;;;;;;;5032647;28;21987;-59
2022/01/07 02:07:52;;;;;;;14.23;6.30;;;;;;;;;;5031919;28;20040;-59
2022/01/07 02:10:23;;;;;;;18.73;5.35;;;;;;;;;;5032347;28;20866;-59
2022/01/07 02:12:48;;;;;;;12.30;5.38;;;;;;;;;;5030130;28;20043;-59
2022/01/07 02:15:16;;;;;;;13.77;5.38;;;;;;;;;;5031173;28;20519;-59
2022/01/07 02:17:46;;;;;;;18.00;5.72;;;;;;;;;;5030857;28;20688;-58
2022/01/07 02:20:16;;;;;;;16.13;6.82;;;;;;;;;;5028611;28;20503;-58
2022/01/07 02:22:42;;;;;;;12.55;6.20;;;;;;;;;;5032097;28;20033;-59
2022/01/07 02:25:07;;;;;;;17.23;6.10;;;;;;;;;;5033102;28;20053;-59
2022/01/07 02:27:36;;;;;;;14.85;6.88;;;;;;;;;;5030864;28;20024;-60
2022/01/07 02:30:09;;;;;;;18.48;6.57;;;;;;;;;;5033008;28;20037;-58
2022/01/07 02:32:37;;;;;;;13.27;6.28;;;;;;;;;;5032505;28;20163;-58
2022/01/07 02:35:06;;;;;;;14.25;6.97;;;;;;;;;;5034373;28;20037;-59
2022/01/07 02:37:32;;;;;;;14.93;7.18;;;;;;;;;;5048222;28;20063;-59
2022/01/07 02:40:02;;;;;;;14.75;6.75;;;;;;;;;;5029984;28;20033;-59
2022/01/07 02:42:30;;;;;;;15.75;7.60;;;;;;;;;;5047114;28;20844;-58
2022/01/07 02:44:55;;;;;;;17.95;8.05;;;;;;;;;;5028718;28;20048;-59
2022/01/07 02:47:29;;;;;;;12.77;6.53;;;;;;;;;;5031898;28;20040;-58
2022/01/07 02:49:54;;;;;;;18.80;7.00;;;;;;;;;;5002291;28;20049;-59
2022/01/07 02:52:22;;;;;;;17.48;7.30;;;;;;;;;;5028397;28;20020;-59
2022/01/07 02:54:47;;;;;;;11.15;6.85;;;;;;;;;;5032692;28;20416;-59
2022/01/07 02:57:18;;;;;;;14.55;6.65;;;;;;;;;;5046916;28;20061;-58
2022/01/07 02:59:48;;;;;;;16.50;6.93;;;;;;;;;;5020639;28;20072;-58
2022/01/07 03:02:16;;;;;;;18.00;7.85;;;;;;;;;;5003453;28;20041;-59
2022/01/07 03:04:46;;;;;;;19.50;8.60;;;;;;;;;;5002891;28;20028;-59
2022/01/07 03:07:12;;;;;;;19.92;7.22;;;;;;;;;;5031654;28;21053;-58
2022/01/07 03:09:47;;;;;;;14.55;6.72;;;;;;;;;;4981837;28;20038;-59
2022/01/07 03:12:15;;;;;;;15.32;8.13;;;;;;;;;;5020360;28;20037;-60
2022/01/07 03:14:44;;;;;;;17.33;7.68;;;;;;;;;;5033799;28;20502;-59
2022/01/07 03:17:11;;;;;;;16.35;8.55;;;;;;;;;;5036105;28;20041;-60
2022/01/07 03:19:37;;;;;;;16.92;7.72;;;;;;;;;;5002650;28;20040;-60
2022/01/07 03:22:04;;;;;;;18.80;7.45;;;;;;;;;;5031049;28;20037;-58
2022/01/07 03:24:30;;;;;;;14.32;7.10;;;;;;;;;;5015133;28;20059;-60
2022/01/07 03:26:58;;;;;;;20.95;8.10;;;;;;;;;;5012152;28;20119;-59
2022/01/07 03:29:41;;;;;;;18.38;7.80;;;;;;;;;;5031707;28;20129;-58
2022/01/07 03:32:06;;;;;;;21.60;7.70;;;;;;;;;;5030459;28;20113;-59
2022/01/07 03:34:34;;;;;;;18.33;7.93;;;;;;;;;;5033287;28;20036;-59
2022/01/07 03:37:00;;;;;;;18.17;8.43;;;;;;;;;;5032679;28;20028;-58
2022/01/07 03:39:28;;;;;;;20.05;8.75;;;;;;;;;;5032764;28;20163;-59
2022/01/07 03:41:58;;;;;;;21.17;8.65;;;;;;;;;;5032592;28;20036;-59
2022/01/07 03:44:26;;;;;;;14.60;8.20;;;;;;;;;;5030787;28;20758;-58
2022/01/07 03:46:54;;;;;;;18.35;8.38;;;;;;;;;;5030889;28;20025;-58
2022/01/07 03:49:22;;;;;;;19.55;8.65;;;;;;;;;;5012846;28;20047;-59
2022/01/07 03:51:50;;;;;;;18.15;8.95;;;;;;;;;;5029069;28;20036;-58
2022/01/07 03:54:15;;;;;;;21.83;8.45;;;;;;;;;;5032470;28;20119;-59
2022/01/07 03:56:43;;;;;;;19.65;8.32;;;;;;;;;;5015430;28;20033;-60
2022/01/07 03:59:13;;;;;;;20.65;9.38;;;;;;;;;;5029069;28;20292;-59
2022/01/07 04:01:41;;;;;;;19.88;8.88;;;;;;;;;;5028338;28;20845;-59
2022/01/07 04:04:10;;;;;;;19.45;9.40;;;;;;;;;;5031915;28;20531;-60
2022/01/07 04:06:35;;;;;;;19.98;9.15;;;;;;;;;;5027872;28;20048;-61
2022/01/07 04:09:05;;;;;;;21.08;8.73;;;;;;;;;;5013973;28;20041;-58
2022/01/07 04:11:33;;;;;;;16.88;8.68;;;;;;;;;;5018001;28;20028;-60
2022/01/07 04:14:01;;;;;;;20.60;8.90;;;;;;;;;;5012574;28;20098;-58
2022/01/07 04:16:29;;;;;;;22.75;8.95;;;;;;;;;;5017288;28;20116;-59
2022/01/07 04:18:54;;;;;;;15.30;8.63;;;;;;;;;;5011439;28;20032;-61
2022/01/07 04:21:22;;;;;;;16.52;8.75;;;;;;;;;;5045264;28;20646;-60
2022/01/07 04:23:50;;;;;;;20.45;8.40;;;;;;;;;;5030529;28;20052;-60
2022/01/07 04:26:18;;;;;;;24.83;8.93;;;;;;;;;;5025494;28;20167;-61
2022/01/07 04:28:48;;;;;;;18.17;8.43;;;;;;;;;;5018281;28;20060;-59
2022/01/07 04:31:16;;;;;;;17.88;7.93;;;;;;;;;;5010046;28;20052;-59
2022/01/07 04:33:41;;;;;;;16.98;9.38;;;;;;;;;;5031922;28;23044;-59
2022/01/07 04:36:09;;;;;;;15.48;8.30;;;;;;;;;;5030530;28;20032;-58
2022/01/07 04:38:37;;;;;;;23.15;8.45;;;;;;;;;;5029126;28;20104;-59
2022/01/07 04:41:05;;;;;;;21.35;8.70;;;;;;;;;;5030017;28;20040;-58
2022/01/07 04:43:31;;;;;;;15.65;8.45;;;;;;;;;;5012150;28;20083;-58
2022/01/07 04:46:04;;;;;;;17.52;8.88;;;;;;;;;;5017004;28;20043;-58
2022/01/07 04:48:29;;;;;;;17.95;8.75;;;;;;;;;;5028725;28;20036;-59
2022/01/07 04:51:07;;;;;;;16.23;9.10;;;;;;;;;;5029393;28;20041;-59
2022/01/07 04:53:37;;;;;;;17.67;9.18;;;;;;;;;;5030374;28;20029;-59
2022/01/07 04:56:04;;;;;;;24.42;9.13;;;;;;;;;;5031565;28;20032;-59
2022/01/07 04:58:32;;;;;;;24.13;9.10;;;;;;;;;;5047836;28;20036;-59
2022/01/07 05:01:00;;;;;;;17.15;9.05;;;;;;;;;;5027353;28;20760;-60
2022/01/07 05:03:27;;;;;;;20.17;9.55;;;;;;;;;;5030056;28;20037;-59
2022/01/07 05:06:05;;;;;;;24.35;10.27;;;;;;;;;;4988965;28;20044;-60
2022/01/07 05:08:49;;;;;;;16.00;8.23;;;;;;;;;;5028210;28;20049;-59
2022/01/07 05:11:15;;;;;;;17.60;9.20;;;;;;;;;;5029171;28;20045;-59
2022/01/07 05:13:40;;;;;;;20.90;9.50;;;;;;;;;;5031751;28;20349;-59
2022/01/07 05:16:09;;;;;;;22.80;10.45;;;;;;;;;;5031119;28;20982;-59
2022/01/07 05:18:34;;;;;;;20.67;8.75;;;;;;;;;;5032327;28;22011;-60
2022/01/07 05:21:00;;;;;;;18.85;8.23;;;;;;;;;;5029119;28;20048;-59
2022/01/07 05:23:28;;;;;;;17.20;8.60;;;;;;;;;;5029481;28;20094;-58
2022/01/07 05:25:56;;;;;;;17.52;9.07;;;;;;;;;;5000761;28;20064;-60
2022/01/07 05:28:26;;;;;;;23.92;8.70;;;;;;;;;;5028717;28;20021;-58
2022/01/07 05:30:54;;;;;;;19.42;8.02;;;;;;;;;;5011843;28;20037;-59
2022/01/07 05:33:22;;;;;;;22.83;8.23;;;;;;;;;;5028273;28;20044;-59
2022/01/07 05:35:47;;;;;;;17.20;8.60;;;;;;;;;;5033433;28;20050;-60
2022/01/07 05:38:12;;;;;;;19.75;8.07;;;;;;;;;;5028086;28;20033;-60
2022/01/07 05:40:38;;;;;;;18.90;8.75;;;;;;;;;;5031205;28;20036;-59
2022/01/07 05:43:06;;;;;;;20.70;8.43;;;;;;;;;;5013687;28;20115;-60
2022/01/07 05:45:31;;;;;;;19.58;8.93;;;;;;;;;;5030231;28;20031;-60
2022/01/07 05:47:59;;;;;;;20.88;8.57;;;;;;;;;;5030059;28;20045;-60
2022/01/07 05:50:27;;;;;;;17.35;8.75;;;;;;;;;;5030503;28;20492;-60
2022/01/07 05:52:55;;;;;;;23.10;8.63;;;;;;;;;;5028625;28;20048;-60
2022/01/07 05:55:23;;;;;;;15.45;8.07;;;;;;;;;;5029398;28;20134;-60
2022/01/07 05:57:53;;;;;;;19.10;9.18;;;;;;;;;;5030616;28;20041;-61
2022/01/07 06:00:18;;;;;;;22.17;8.02;;;;;;;;;;5028087;28;20072;-61
2022/01/07 06:02:46;;;;;;;19.10;8.95;;;;;;;;;;5006273;28;20041;-59
2022/01/07 06:05:14;;;;;;;17.60;8.50;;;;;;;;;;5016425;28;20480;-59
2022/01/07 06:07:42;;;;;;;14.38;8.63;;;;;;;;;;5027476;28;20049;-60
2022/01/07 06:10:08;;;;;;;20.42;8.50;;;;;;;;;;5031482;28;20033;-59
2022/01/07 06:12:36;;;;;;;14.23;7.85;;;;;;;;;;5023049;28;20033;-60
2022/01/07 06:15:06;;;;;;;19.90;8.05;;;;;;;;;;5032361;28;20033;-60
2022/01/07 06:17:33;;;;;;;16.42;8.52;;;;;;;;;;5029778;28;20037;-59
2022/01/07 06:20:01;;;;;;;18.45;9.23;;;;;;;;;;5023747;28;20041;-60
2022/01/07 06:22:27;;;;;;;16.58;8.07;;;;;;;;;;5025895;28;20040;-60
2022/01/07 06:24:55;;;;;;;20.88;8.15;;;;;;;;;;5029521;28;20095;-59
2022/01/07 06:27:23;;;;;;;22.08;9.45;;;;;;;;;;5029993;28;20020;-60
2022/01/07 06:29:51;;;;;;;14.27;7.72;;;;;;;;;;5033325;28;20136;-59
2022/01/07 06:32:19;;;;;;;21.05;8.15;;;;;;;;;;5014015;28;20036;-59
2022/01/07 06:34:49;;;;;;;14.75;7.70;;;;;;;;;;5033946;28;20125;-59
2022/01/07 06:37:17;;;;;;;14.50;8.00;;;;;;;;;;5015610;28;20051;-59
2022/01/07 06:39:45;;;;;;;19.63;8.52;;;;;;;;;;5035088;28;20113;-59
2022/01/07 06:42:13;;;;;;;17.83;8.82;;;;;;;;;;5033932;28;20041;-59
2022/01/07 06:44:40;;;;;;;16.45;8.10;;;;;;;;;;5033939;28;21021;-59
2022/01/07 06:47:05;;;;;;;15.35;7.88;;;;;;;;;;5030760;28;20040;-59
2022/01/07 06:49:45;;;;;;;15.60;8.88;;;;;;;;;;5032734;28;20025;-59
2022/01/07 06:52:13;;;;;;;16.30;8.68;;;;;;;;;;5031588;28;20114;-59
2022/01/07 06:54:41;;;;;;;17.20;9.02;;;;;;;;;;5032744;28;20149;-61
2022/01/07 06:57:10;;;;;;;20.23;10.10;;;;;;;;;;5012683;28;20605;-59
2022/01/07 06:59:35;;;;;;;15.43;8.18;;;;;;;;;;5028833;28;20037;-60
2022/01/07 07:02:00;;;;;;;15.50;9.18;;;;;;;;;;5000031;28;22254;-60
2022/01/07 07:04:26;;;;;;;15.75;8.63;;;;;;;;;;5036615;28;20060;-60
2022/01/07 07:06:53;;;;;;;15.82;8.85;;;;;;;;;;5035493;28;20033;-59
2022/01/07 07:09:21;;;;;;;19.55;9.07;;;;;;;;;;5032305;28;20044;-59
2022/01/07 07:11:51;;;;;;;17.65;8.60;;;;;;;;;;5036155;28;20162;-59
2022/01/07 07:14:19;;;;;;;20.45;9.32;;;;;;;;;;5021858;28;20600;-60
2022/01/07 07:16:47;;;;;;;22.27;9.68;;;;;;;;;;5018058;28;20116;-59
2022/01/07 07:19:12;;;;;;;19.70;9.20;;;;;;;;;;5036378;28;20090;-59
2022/01/07 07:21:41;;;;;;;17.80;9.02;;;;;;;;;;5034395;28;20029;-59
2022/01/07 07:24:08;;;;;;;14.52;8.32;;;;;;;;;;5033877;28;20040;-59
2022/01/07 07:26:34;;;;;;;18.85;9.32;;;;;;;;;;5025545;28;20049;-59
2022/01/07 07:29:04;;;;;;;25.45;11.27;;;;;;;;;;5029657;28;20128;-59
2022/01/07 07:31:35;;;;;;;17.63;9.30;;;;;;;;;;5036285;28;20033;-59
2022/01/07 07:36:46;;;;;;;19.08;10.70;;;;;;;;;;5028028;28;20024;-60
2022/01/07 07:39:14;;;;;;;27.73;11.13;;;;;;;;;;5030078;28;20025;-60
2022/01/07 07:41:43;;;;;;;20.63;10.02;;;;;;;;;;5031584;28;20044;-60
2022/01/07 07:44:11;;;;;;;19.55;10.40;;;;;;;;;;5035047;28;20032;-59
2022/01/07 07:46:38;;;;;;;24.08;11.38;;;;;;;;;;5034192;28;20079;-59
2022/01/07 07:49:07;;;;;;;41.75;11.70;;;;;;;;;;5032683;28;21766;-60
2022/01/07 07:51:38;;;;;;;22.23;11.95;;;;;;;;;;5018292;28;20037;-60
2022/01/07 07:54:08;;;;;;;27.20;13.13;;;;;;;;;;5015844;28;20130;-60
2022/01/07 07:56:39;;;;;;;25.27;11.60;;;;;;;;;;5032969;28;20046;-59
2022/01/07 07:59:07;;;;;;;23.17;11.35;;;;;;;;;;5034608;28;20067;-61
2022/01/07 08:01:36;;;;;;;29.52;13.43;;;;;;;;;;5031737;28;20039;-62
2022/01/07 08:04:01;;;;;;;26.98;12.20;;;;;;;;;;5035937;28;20662;-59
2022/01/07 08:06:27;;;;;;;27.23;12.38;;;;;;;;;;5034166;28;20028;-59
2022/01/07 08:08:53;;;;;;;36.03;12.75;;;;;;;;;;5034080;28;20481;-61
2022/01/07 08:11:22;;;;;;;23.63;12.00;;;;;;;;;;5030980;28;20388;-60
2022/01/07 08:16:42;;;;;;;32.58;12.93;;;;;;;;;;5029620;28;20032;-60
2022/01/07 08:19:09;;;;;;;31.65;14.57;;;;;;;;;;5034786;28;20132;-61
2022/01/07 08:21:35;;;;;;;26.55;13.68;;;;;;;;;;5016038;28;20039;-60
2022/01/07 08:24:01;;;;;;;30.70;13.02;;;;;;;;;;5009343;28;20021;-61
2022/01/07 08:26:28;;;;;;;30.08;12.30;;;;;;;;;;5036940;28;20151;-61
2022/01/07 08:29:00;;;;;;;36.92;13.93;;;;;;;;;;5031261;28;20781;-61
2022/01/07 08:36:43;;;;;;;28.50;12.20;;;;;;;;;;5032719;28;20040;-61
2022/01/07 08:39:13;;;;;;;25.30;11.88;;;;;;;;;;5049071;28;20036;-61
2022/01/07 08:41:42;;;;;;;24.80;11.82;;;;;;;;;;5030700;28;20033;-61
2022/01/07 08:44:08;;;;;;;24.17;11.73;;;;;;;;;;5027501;28;20384;-61
2022/01/07 08:46:33;;;;;;;31.13;12.32;;;;;;;;;;5029968;28;20028;-61
2022/01/07 08:49:03;;;;;;;25.63;12.35;;;;;;;;;;5031191;28;20053;-60
2022/01/07 08:51:29;;;;;;;20.70;11.77;;;;;;;;;;5027554;28;20024;-59
2022/01/07 08:53:56;;;;;;;27.30;12.50;;;;;;;;;;5029841;28;20024;-60
2022/01/07 08:56:26;;;;;;;26.15;11.73;;;;;;;;;;5024909;28;20749;-61
2022/01/07 08:58:54;;;;;;;27.08;11.88;;;;;;;;;;5026070;28;20029;-59
2022/01/07 09:01:22;;;;;;;17.35;10.23;;;;;;;;;;5028069;28;20041;-60
2022/01/07 09:03:50;;;;;;;24.70;10.95;;;;;;;;;;5027779;28;20148;-59
2022/01/07 09:06:16;;;;;;;15.27;9.57;;;;;;;;;;5030305;28;20024;-60
2022/01/07 09:08:44;;;;;;;20.35;10.73;;;;;;;;;;5030993;28;20079;-60
2022/01/07 09:11:13;;;;;;;26.00;11.45;;;;;;;;;;5012152;28;20041;-60
2022/01/07 09:13:40;;;;;;;27.85;11.82;;;;;;;;;;5029101;28;20051;-61
2022/01/07 09:16:08;;;;;;;25.05;11.27;;;;;;;;;;5027027;28;20046;-59
2022/01/07 09:18:37;;;;;;;21.83;10.45;;;;;;;;;;5028435;28;20033;-60
2022/01/07 09:21:05;;;;;;;24.17;12.50;;;;;;;;;;5012317;28;20086;-60
2022/01/07 09:23:34;;;;;;;27.67;10.98;;;;;;;;;;5032117;28;20048;-60
2022/01/07 09:26:04;;;;;;;21.40;11.25;;;;;;;;;;5030224;28;20049;-59
2022/01/07 09:28:32;;;;;;;32.20;11.20;;;;;;;;;;5030431;28;20028;-60
2022/01/07 09:31:03;;;;;;;19.30;10.38;;;;;;;;;;5009606;28;20029;-60
2022/01/07 09:33:31;;;;;;;27.65;12.02;;;;;;;;;;5028854;28;20564;-60
2022/01/07 09:39:07;;;;;;;24.05;12.50;;;;;;;;;;5031966;28;20041;-60
2022/01/07 09:41:33;;;;;;;20.58;10.90;;;;;;;;;;5031190;28;20445;-60
2022/01/07 09:44:01;;;;;;;22.08;11.77;;;;;;;;;;5030430;28;20132;-62
2022/01/07 09:49:34;;;;;;;18.38;10.63;;;;;;;;;;5029739;28;20521;-61
2022/01/07 09:52:03;;;;;;;25.20;12.10;;;;;;;;;;5029800;28;20152;-60
2022/01/07 09:54:35;;;;;;;31.40;11.43;;;;;;;;;;5032664;28;20041;-60
2022/01/07 09:57:22;;;;;;;22.17;10.45;;;;;;;;;;5031393;28;20028;-61
2022/01/07 09:59:51;;;;;;;30.20;11.27;;;;;;;;;;5031604;28;20094;-60
2022/01/07 10:02:35;;;;;;;18.17;9.48;;;;;;;;;;5048360;28;20756;-60
2022/01/07 10:05:16;;;;;;;24.48;10.40;;;;;;;;;;5021162;28;20032;-60
2022/01/07 10:07:46;;;;;;;23.90;9.35;;;;;;;;;;5032104;28;20029;-60
2022/01/07 10:10:19;;;;;;;18.02;8.68;;;;;;;;;;5032340;28;20490;-61
2022/01/07 10:15:56;;;;;;;22.65;9.13;;;;;;;;;;5031281;28;20043;-60
2022/01/07 10:18:21;;;;;;;18.67;7.32;;;;;;;;;;5029420;28;20161;-60
2022/01/07 10:20:49;;;;;;;17.08;6.95;;;;;;;;;;5014486;28;20037;-60
2022/01/07 10:23:17;;;;;;;13.95;5.65;;;;;;;;;;5016067;28;20037;-60
2022/01/07 10:25:48;;;;;;;15.88;5.00;;;;;;;;;;5036937;28;20049;-60
2022/01/07 10:28:18;;;;;;;15.35;4.15;;;;;;;;;;5031633;28;20025;-60
2022/01/07 10:30:46;;;;;;;8.63;3.47;;;;;;;;;;5015203;28;20032;-60
2022/01/07 10:33:15;;;;;;;9.15;3.78;;;;;;;;;;5031328;28;20056;-60
2022/01/07 10:35:40;;;;;;;4.72;2.70;;;;;;;;;;5032790;28;20044;-61
2022/01/07 10:38:08;;;;;;;3.80;2.53;;;;;;;;;;5032611;28;20080;-60
2022/01/07 10:40:37;;;;;;;2.67;2.25;;;;;;;;;;5031349;28;20029;-60
2022/01/07 10:46:11;;;;;;;5.88;2.80;;;;;;;;;;5030677;28;20036;-61
2022/01/07 10:48:43;;;;;;;7.00;2.72;;;;;;;;;;5029089;28;20154;-60
2022/01/07 10:51:17;;;;;;;10.15;3.30;;;;;;;;;;5029005;28;21742;-61
2022/01/07 10:53:47;;;;;;;4.07;2.13;;;;;;;;;;5027725;28;20052;-61
2022/01/07 10:56:22;;;;;;;12.68;2.47;;;;;;;;;;5034346;28;20418;-60
2022/01/07 10:58:47;;;;;;;4.88;2.20;;;;;;;;;;5030710;28;20032;-61
2022/01/07 11:01:19;;;;;;;8.00;2.20;;;;;;;;;;5030271;28;20047;-60
2022/01/07 11:03:47;;;;;;;2.95;1.45;;;;;;;;;;5028265;28;20067;-60
2022/01/07 11:06:15;;;;;;;3.55;1.40;;;;;;;;;;5030133;28;20041;-60
2022/01/07 11:08:41;;;;;;;8.32;1.48;;;;;;;;;;5027149;28;20070;-60
2022/01/07 11:11:08;;;;;;;5.03;1.73;;;;;;;;;;5015343;28;20144;-60
2022/01/07 11:13:39;;;;;;;5.18;1.45;;;;;;;;;;5026690;28;20134;-60
2022/01/07 11:16:07;;;;;;;9.00;1.70;;;;;;;;;;5029373;28;20033;-60
2022/01/07 11:18:38;;;;;;;4.05;1.52;;;;;;;;;;5016577;28;20951;-60
2022/01/07 11:21:04;;;;;;;5.20;1.58;;;;;;;;;;5030064;28;20533;-60
2022/01/07 11:23:30;;;;;;;2.40;1.30;;;;;;;;;;5017487;28;20025;-60
2022/01/07 11:29:36;;;;;;;8.60;2.40;;;;;;;;;;5029953;28;20058;-61
2022/01/07 11:32:21;;;;;;;6.57;2.22;;;;;;;;;;5030329;28;20029;-61
2022/01/07 11:34:52;;;;;;;6.93;2.30;;;;;;;;;;5030852;28;20071;-61
2022/01/07 11:37:40;;;;;;;7.63;2.55;;;;;;;;;;5029918;28;20075;-60
2022/01/07 11:40:08;;;;;;;12.25;3.10;;;;;;;;;;5029871;28;20152;-61
2022/01/07 11:42:49;;;;;;;9.85;3.97;;;;;;;;;;5016386;28;20043;-61
2022/01/07 11:45:26;;;;;;;7.93;3.70;;;;;;;;;;5030493;28;20044;-61
2022/01/07 11:47:55;;;;;;;8.93;3.72;;;;;;;;;;5015547;28;20488;-59
2022/01/07 11:50:24;;;;;;;8.38;4.43;;;;;;;;;;5006108;28;20044;-60
2022/01/07 11:53:04;;;;;;;9.38;4.82;;;;;;;;;;5024842;28;20039;-60
2022/01/07 11:55:40;;;;;;;13.82;5.18;;;;;;;;;;5038480;28;21159;-61
2022/01/07 11:58:13;;;;;;;15.13;5.43;;;;;;;;;;5028342;28;20128;-61
2022/01/07 12:00:53;;;;;;;10.68;4.43;;;;;;;;;;5029290;28;20041;-61
2022/01/07 12:03:28;;;;;;;12.95;3.70;;;;;;;;;;5008953;28;20037;-61
2022/01/07 12:05:57;;;;;;;7.25;3.45;;;;;;;;;;5030218;28;20037;-60
2022/01/07 12:09:05;;;;;;;9.00;3.15;;;;;;;;;;5029963;28;20032;-61
2022/01/07 12:11:39;;;;;;;13.13;3.92;;;;;;;;;;5030742;28;20032;-60
2022/01/07 12:14:16;;;;;;;9.60;4.10;;;;;;;;;;5028687;28;20412;-61
2022/01/07 12:16:46;;;;;;;12.27;3.58;;;;;;;;;;5046847;28;20089;-61
2022/01/07 12:19:18;;;;;;;11.13;3.50;;;;;;;;;;5031100;28;20105;-60
2022/01/07 12:21:53;;;;;;;10.32;4.07;;;;;;;;;;5029543;28;20043;-60
2022/01/07 12:24:30;;;;;;;11.55;3.65;;;;;;;;;;5031186;28;20060;-60
2022/01/07 12:27:16;;;;;;;9.15;3.35;;;;;;;;;;5016766;28;20054;-60
2022/01/07 12:29:50;;;;;;;15.80;3.58;;;;;;;;;;5030845;28;20171;-59
2022/01/07 12:32:20;;;;;;;8.05;3.75;;;;;;;;;;5026590;28;20106;-60
2022/01/07 12:34:50;;;;;;;9.25;3.25;;;;;;;;;;5009761;28;20043;-60
2022/01/07 12:37:22;;;;;;;8.60;3.50;;;;;;;;;;5024296;28;20049;-60
2022/01/07 12:39:48;;;;;;;15.25;3.95;;;;;;;;;;5025181;28;20049;-61
2022/01/07 12:42:26;;;;;;;9.52;3.97;;;;;;;;;;5043657;28;20089;-60
2022/01/07 12:44:54;;;;;;;8.55;4.03;;;;;;;;;;5027717;28;20059;-60
2022/01/07 12:47:22;;;;;;;8.38;4.05;;;;;;;;;;5026985;28;20039;-61
2022/01/07 12:49:51;;;;;;;5.20;2.80;;;;;;;;;;5028192;28;20403;-60
2022/01/07 12:52:21;;;;;;;9.68;3.00;;;;;;;;;;5030699;28;20060;-61
2022/01/07 12:55:07;;;;;;;9.68;3.25;;;;;;;;;;5026525;28;20553;-61
2022/01/07 12:57:46;;;;;;;15.10;2.65;;;;;;;;;;5024932;28;20067;-61
2022/01/07 13:00:16;;;;;;;12.75;2.85;;;;;;;;;;5027599;28;20171;-61
2022/01/07 13:02:46;;;;;;;5.90;2.30;;;;;;;;;;5026591;28;20029;-61
2022/01/07 13:05:20;;;;;;;3.97;2.33;;;;;;;;;;5029067;28;20025;-61
2022/01/07 13:08:23;;;;;;;7.05;2.63;;;;;;;;;;5030445;28;20529;-61
2022/01/07 13:10:51;;;;;;;17.27;3.50;;;;;;;;;;5027486;28;20047;-61
2022/01/07 13:13:22;;;;;;;9.32;2.90;;;;;;;;;;5011096;28;20120;-62
2022/01/07 13:16:21;;;;;;;5.25;2.45;;;;;;;;;;5030278;28;20474;-61
2022/01/07 13:22:28;;;;;;;6.43;2.40;;;;;;;;;;5030464;28;20047;-60
2022/01/07 13:24:58;;;;;;;7.15;2.33;;;;;;;;;;5027078;28;20041;-60
2022/01/07 13:28:00;;;;;;;11.75;2.47;;;;;;;;;;5025962;28;20688;-60
2022/01/07 13:30:38;;;;;;;12.65;1.92;;;;;;;;;;5028630;28;20029;-64
2022/01/07 13:33:32;;;;;;;13.32;2.13;;;;;;;;;;5025794;28;20638;-60
2022/01/07 13:36:11;;;;;;;3.03;1.30;;;;;;;;;;5043343;28;20080;-60
2022/01/07 13:38:37;;;;;;;6.20;1.65;;;;;;;;;;5029481;28;20133;-60
2022/01/07 13:41:06;;;;;;;2.60;1.65;;;;;;;;;;5013781;28;20416;-60
2022/01/07 13:43:35;;;;;;;10.27;1.98;;;;;;;;;;5013028;28;20044;-59
2022/01/07 13:46:08;;;;;;;11.98;1.88;;;;;;;;;;5012603;28;20104;-62
2022/01/07 13:48:56;;;;;;;7.97;1.80;;;;;;;;;;5027540;28;20047;-62
2022/01/07 13:51:22;;;;;;;17.15;2.03;;;;;;;;;;5026051;28;20653;-62
2022/01/07 13:54:06;;;;;;;6.25;1.63;;;;;;;;;;5027065;28;20098;-60
2022/01/07 13:56:32;;;;;;;4.32;1.50;;;;;;;;;;5024958;28;20103;-62
2022/01/07 13:58:58;;;;;;;8.48;1.63;;;;;;;;;;5027450;28;20045;-61
2022/01/07 14:01:26;;;;;;;5.25;1.75;;;;;;;;;;5022207;28;20040;-61
2022/01/07 14:03:57;;;;;;;7.82;1.80;;;;;;;;;;5026688;28;20424;-61
2022/01/07 14:06:25;;;;;;;5.40;1.55;;;;;;;;;;5022990;28;20043;-60
2022/01/07 14:09:13;;;;;;;13.65;1.48;;;;;;;;;;5029759;28;20846;-60
2022/01/07 14:15:18;;;;;;;10.60;1.73;;;;;;;;;;5027443;28;20514;-61
2022/01/07 14:17:46;;;;;;;6.28;1.90;;;;;;;;;;5026155;28;20026;-61
2022/01/07 14:20:15;;;;;;;6.65;1.80;;;;;;;;;;5028675;28;20037;-63
2022/01/07 14:26:17;;;;;;;6.78;1.88;;;;;;;;;;5024444;28;20053;-61
2022/01/07 14:28:47;;;;;;;10.80;2.08;;;;;;;;;;5009168;28;20029;-60
2022/01/07 14:31:17;;;;;;;11.68;2.88;;;;;;;;;;5026062;28;20462;-62
2022/01/07 14:33:49;;;;;;;6.40;2.22;;;;;;;;;;5004131;28;20033;-60
2022/01/07 14:36:18;;;;;;;11.23;2.15;;;;;;;;;;5013691;28;20169;-61
2022/01/07 14:38:52;;;;;;;8.52;2.35;;;;;;;;;;5031790;28;20653;-60
2022/01/07 14:41:21;;;;;;;10.63;2.25;;;;;;;;;;5022914;28;20025;-61
2022/01/07 14:43:49;;;;;;;11.00;2.53;;;;;;;;;;5029629;28;20037;-62
2022/01/07 14:46:18;;;;;;;5.05;2.40;;;;;;;;;;4999156;28;20024;-60
2022/01/07 14:48:48;;;;;;;4.65;1.73;;;;;;;;;;5011478;28;20036;-60
2022/01/07 14:51:16;;;;;;;15.38;2.70;;;;;;;;;;5012216;28;20051;-60
2022/01/07 14:53:44;;;;;;;12.32;3.10;;;;;;;;;;5028749;28;20143;-60
2022/01/07 14:56:12;;;;;;;11.20;2.70;;;;;;;;;;5026607;28;20041;-60
2022/01/07 14:58:44;;;;;;;3.90;2.60;;;;;;;;;;5030384;28;20045;-60
2022/01/07 15:01:09;;;;;;;12.32;2.35;;;;;;;;;;5014367;28;20879;-61
2022/01/07 15:03:39;;;;;;;8.57;2.40;;;;;;;;;;5031364;28;20298;-61
2022/01/07 15:06:05;;;;;;;11.00;2.58;;;;;;;;;;5014240;28;20760;-60
2022/01/07 15:08:30;;;;;;;5.47;2.38;;;;;;;;;;4996128;28;20042;-62
2022/01/07 15:10:58;;;;;;;8.43;2.53;;;;;;;;;;4994075;28;20056;-61
2022/01/07 15:13:26;;;;;;;9.77;3.33;;;;;;;;;;5023232;28;20030;-61
2022/01/07 15:18:21;;;;;;;6.00;2.92;;;;;;;;;;5009899;28;20062;-60
2022/01/07 15:20:49;;;;;;;10.00;3.40;;;;;;;;;;4996667;28;20129;-59
2022/01/07 15:23:17;;;;;;;12.43;3.30;;;;;;;;;;5029225;28;21654;-60
2022/01/07 15:25:47;;;;;;;15.13;3.20;;;;;;;;;;5032746;28;20029;-59
2022/01/07 15:28:14;;;;;;;5.57;2.13;;;;;;;;;;4998501;28;20485;-61
2022/01/07 15:30:39;;;;;;;10.02;3.10;;;;;;;;;;4997703;28;20036;-60
2022/01/07 15:33:42;;;;;;;15.73;3.03;;;;;;;;;;5014862;28;20029;-61